地図

経路データ

SID SEASON NUMBER BASIN SUBBASIN NAME ISO_TIME NATURE LAT LON WMO_WIND WMO_PRES WMO_AGENCY TRACK_TYPE DIST2LAND LANDFALL IFLAG USA_AGENCY USA_ATCF_ID USA_LAT USA_LON USA_RECORD USA_STATUS USA_WIND USA_PRES USA_SSHS USA_R34_NE USA_R34_SE USA_R34_SW USA_R34_NW USA_R50_NE USA_R50_SE USA_R50_SW USA_R50_NW USA_R64_NE USA_R64_SE USA_R64_SW USA_R64_NW USA_POCI USA_ROCI USA_RMW USA_EYE TOKYO_LAT TOKYO_LON TOKYO_GRADE TOKYO_WIND TOKYO_PRES TOKYO_R50_DIR TOKYO_R50_LONG TOKYO_R50_SHORT TOKYO_R30_DIR TOKYO_R30_LONG TOKYO_R30_SHORT TOKYO_LAND CMA_LAT CMA_LON CMA_CAT CMA_WIND CMA_PRES HKO_LAT HKO_LON HKO_CAT HKO_WIND HKO_PRES NEWDELHI_LAT NEWDELHI_LON NEWDELHI_GRADE NEWDELHI_WIND NEWDELHI_PRES NEWDELHI_CI NEWDELHI_DP NEWDELHI_POCI REUNION_LAT REUNION_LON REUNION_TYPE REUNION_WIND REUNION_PRES REUNION_TNUM REUNION_CI REUNION_RMW REUNION_R34_NE REUNION_R34_SE REUNION_R34_SW REUNION_R34_NW REUNION_R50_NE REUNION_R50_SE REUNION_R50_SW REUNION_R50_NW REUNION_R64_NE REUNION_R64_SE REUNION_R64_SW REUNION_R64_NW BOM_LAT BOM_LON BOM_TYPE BOM_WIND BOM_PRES BOM_TNUM BOM_CI BOM_RMW BOM_R34_NE BOM_R34_SE BOM_R34_SW BOM_R34_NW BOM_R50_NE BOM_R50_SE BOM_R50_SW BOM_R50_NW BOM_R64_NE BOM_R64_SE BOM_R64_SW BOM_R64_NW BOM_ROCI BOM_POCI BOM_EYE BOM_POS_METHOD BOM_PRES_METHOD NADI_LAT NADI_LON NADI_CAT NADI_WIND NADI_PRES WELLINGTON_LAT WELLINGTON_LON WELLINGTON_WIND WELLINGTON_PRES DS824_LAT DS824_LON DS824_STAGE DS824_WIND DS824_PRES TD9636_LAT TD9636_LON TD9636_STAGE TD9636_WIND TD9636_PRES TD9635_LAT TD9635_LON TD9635_WIND TD9635_PRES TD9635_ROCI NEUMANN_LAT NEUMANN_LON NEUMANN_CLASS NEUMANN_WIND NEUMANN_PRES MLC_LAT MLC_LON MLC_CLASS MLC_WIND MLC_PRES USA_GUST BOM_GUST BOM_GUST_PER REUNION_GUST REUNION_GUST_PER USA_SEAHGT USA_SEARAD_NE USA_SEARAD_SE USA_SEARAD_SW USA_SEARAD_NW STORM_SPEED STORM_DIR
1926285N17131 1926 53 WP MM NOT_NAMED 1926-10-11 22:00:00 NR 16.7000 131.200 main 793 764 __________O___ -1 16.7000 131.200 2 9 266
1926285N17131 1926 53 WP MM NOT_NAMED 1926-10-12 00:00:00 NR 16.6787 130.876 main 764 711 __________P___ -1 16.6787 130.876 2 9 266
1926285N17131 1926 53 WP MM NOT_NAMED 1926-10-12 03:00:00 NR 16.6479 130.392 main 711 663 __________P___ -1 16.6479 130.392 2 9 266
1926285N17131 1926 53 WP MM NOT_NAMED 1926-10-12 06:00:00 NR 16.6217 129.916 main 663 625 __________P___ -1 16.6217 129.916 2 9 267
1926285N17131 1926 53 WP MM NOT_NAMED 1926-10-12 09:00:00 NR 16.6036 129.451 main 625 606 __________P___ -1 16.6036 129.451 2 9 268
1926285N17131 1926 53 WP MM NOT_NAMED 1926-10-12 10:00:00 NR 16.6000 129.300 main 606 578 __________O___ -1 16.6000 129.300 2 9 269
1926285N17131 1926 53 WP MM NOT_NAMED 1926-10-12 12:00:00 NR 16.5971 129.003 main 578 542 __________P___ -1 16.5971 129.003 2 8 270
1926285N17131 1926 53 WP MM NOT_NAMED 1926-10-12 15:00:00 NR 16.6054 128.569 main 542 498 __________P___ -1 16.6054 128.569 2 8 272
1926285N17131 1926 53 WP MM NOT_NAMED 1926-10-12 18:00:00 NR 16.6317 128.148 main 498 472 __________P___ -1 16.6317 128.148 2 8 275
1926285N17131 1926 53 WP MM NOT_NAMED 1926-10-12 21:00:00 NR 16.6790 127.736 main 472 464 __________P___ -1 16.6790 127.736 2 8 277
1926285N17131 1926 53 WP MM NOT_NAMED 1926-10-12 22:00:00 NR 16.7000 127.600 main 464 441 __________O___ -1 16.7000 127.600 2 8 280
1926285N17131 1926 53 WP MM NOT_NAMED 1926-10-13 00:00:00 NR 16.7493 127.328 main 441 419 __________P___ -1 16.7493 127.328 2 8 282
1926285N17131 1926 53 WP MM NOT_NAMED 1926-10-13 03:00:00 NR 16.8424 126.925 main 419 401 __________P___ -1 16.8424 126.925 2 8 285
1926285N17131 1926 53 WP MM NOT_NAMED 1926-10-13 06:00:00 NR 16.9500 126.528 main 410 382 __________P___ -1 16.9500 126.528 2 8 286
1926285N17131 1926 53 WP MM NOT_NAMED 1926-10-13 09:00:00 NR 17.0629 126.132 main 382 372 __________P___ -1 17.0629 126.132 2 8 287
1926285N17131 1926 53 WP MM NOT_NAMED 1926-10-13 10:00:00 NR 17.1000 126.000 main 372 351 __________O___ -1 17.1000 126.000 2 7 288
1926285N17131 1926 53 WP MM NOT_NAMED 1926-10-13 12:00:00 NR 17.1681 125.785 main 351 319 __________P___ -1 17.1681 125.785 2 6 288
1926285N17131 1926 53 WP MM NOT_NAMED 1926-10-13 15:00:00 NR 17.2706 125.465 main 320 279 __________P___ -1 17.2706 125.465 2 7 287
1926285N17131 1926 53 WP MM NOT_NAMED 1926-10-13 18:00:00 NR 17.3718 125.091 main 279 229 __________P___ -1 17.3718 125.091 2 8 284
1926285N17131 1926 53 WP MM NOT_NAMED 1926-10-13 21:00:00 NR 17.4690 124.600 main 229 209 __________P___ -1 17.4690 124.600 2 10 281
1926285N17131 1926 53 WP MM NOT_NAMED 1926-10-13 22:00:00 NR 17.5000 124.400 main 209 162 __________O___ -1 17.5000 124.400 2 13 280
1926285N17131 1926 53 WP MM NOT_NAMED 1926-10-14 00:00:00 NR 17.5848 123.933 main 162 86 __________P___ -1 17.5848 123.933 2 15 279
1926285N17131 1926 53 WP MM NOT_NAMED 1926-10-14 03:00:00 NR 17.7059 123.107 main 86 10 __________P___ -1 17.7059 123.107 2 17 277
1926285N17131 1926 53 WP MM NOT_NAMED 1926-10-14 06:00:00 NR 17.7921 122.166 main 10 0 __________P___ -1 17.7921 122.166 2 19 273
1926285N17131 1926 53 WP MM NOT_NAMED 1926-10-14 09:00:00 NR 17.8128 121.149 main 0 0 __________P___ -1 17.8128 121.149 2 20 270
1926285N17131 1926 53 WP MM NOT_NAMED 1926-10-14 10:00:00 NR 17.8000 120.800 main 0 0 __________O___ -1 17.8000 120.800 2 20 266
1926285N17131 1926 53 WP MM NOT_NAMED 1926-10-14 12:00:00 NR 17.7409 120.095 main 23 33 __________P___ -1 17.7409 120.095 2 20 263
1926285N17131 1926 53 WP MM NOT_NAMED 1926-10-14 15:00:00 NR 17.5804 119.026 main 137 137 __________P___ -1 17.5804 119.026 2 21 259
1926285N17131 1926 53 WP MM NOT_NAMED 1926-10-14 18:00:00 NR 17.3559 117.945 main 236 231 __________P___ -1 17.3559 117.945 2 21 257
1926285N17131 1926 53 WP MM NOT_NAMED 1926-10-14 21:00:00 NR 17.0922 116.861 main 321 331 __________P___ -1 17.0922 116.861 2 21 256
1926285N17131 1926 53 WP MM NOT_NAMED 1926-10-14 22:00:00 NR 17.0000 116.500 main 359 __________O___ -1 17.0000 116.500 2 21 255

デジタル台風データ・検索

IBTrACS Databaseについて

本データベースは、米国NOAAが公開する1842年以降の世界の熱帯低気圧のベストトラックデータアーカイブInternational Best Track Archive for Climate Stewardship (IBTrACS)を、ウェブで閲覧しやすい形式に変換したものです。

最終更新日:2021-10-21